Time;durP1;ratioP1;P1;durP2;ratioP2;P2;SDS_P1;SDS_P2;PMS_P1;PMS_P2;Temp;Humidity;BMP_temperature;BMP_pressure;BME280_temperature;BME280_humidity;BME280_pressure;Samples;Min_cycle;Max_cycle;Signal;HPM_P1;HPM_P2
2021/12/01 00:00:34;;;;;;;54.15;21.70;;;9.20;99.90;;;;;;5010133;28;20152;-83
2021/12/01 00:03:00;;;;;;;45.58;19.02;;;8.50;99.90;;;;;;4994626;28;20079;-83
2021/12/01 00:05:31;;;;;;;45.78;19.17;;;8.60;99.90;;;;;;4993917;28;20092;-84
2021/12/01 00:07:57;;;;;;;44.25;19.27;;;8.60;99.90;;;;;;5009287;28;20049;-84
2021/12/01 00:10:28;;;;;;;43.75;19.63;;;8.70;99.90;;;;;;4993897;28;20631;-83
2021/12/01 00:12:54;;;;;;;38.80;17.55;;;8.70;99.90;;;;;;4993840;28;20434;-84
2021/12/01 00:15:21;;;;;;;34.92;16.85;;;8.60;99.90;;;;;;4993348;28;20399;-84
2021/12/01 00:17:48;;;;;;;34.83;17.58;;;8.60;99.90;;;;;;4991317;28;20455;-83
2021/12/01 00:20:16;;;;;;;38.05;18.40;;;8.70;99.90;;;;;;4989123;28;20042;-84
2021/12/01 00:22:43;;;;;;;35.97;17.35;;;8.70;99.90;;;;;;5009546;28;20038;-84
2021/12/01 00:25:12;;;;;;;35.45;17.75;;;8.70;99.90;;;;;;5009093;28;20045;-84
2021/12/01 00:27:38;;;;;;;37.08;17.30;;;8.70;99.90;;;;;;4992956;28;20038;-83
2021/12/01 00:30:05;;;;;;;34.45;18.65;;;8.70;99.90;;;;;;4993144;28;20410;-84
2021/12/01 00:32:31;;;;;;;32.72;17.10;;;8.70;99.90;;;;;;4993628;28;20090;-84
2021/12/01 00:34:59;;;;;;;40.33;19.08;;;8.70;99.90;;;;;;4997618;28;20449;-84
2021/12/01 00:37:25;;;;;;;31.48;16.30;;;8.70;99.90;;;;;;4992873;28;20049;-84
2021/12/01 00:39:50;;;;;;;35.35;18.70;;;8.80;99.90;;;;;;4993294;28;20049;-84
2021/12/01 00:42:18;;;;;;;36.38;20.52;;;8.70;99.90;;;;;;4992758;28;20108;-84
2021/12/01 00:44:55;;;;;;;35.95;20.30;;;8.80;99.90;;;;;;4977037;28;20044;-84
2021/12/01 00:47:23;;;;;;;40.95;20.38;;;8.80;99.90;;;;;;4977804;28;20038;-84
2021/12/01 00:49:49;;;;;;;40.80;21.48;;;8.80;99.90;;;;;;4976890;28;20116;-83
2021/12/01 00:52:14;;;;;;;41.05;21.88;;;8.80;99.90;;;;;;4992725;28;20558;-84
2021/12/01 00:54:40;;;;;;;42.90;23.92;;;8.70;99.90;;;;;;4976319;28;20042;-84
2021/12/01 00:57:06;;;;;;;45.17;20.92;;;9.00;99.90;;;;;;4992729;28;20069;-84
2021/12/01 00:59:34;;;;;;;43.38;24.30;;;9.30;99.90;;;;;;4992123;28;20070;-84
2021/12/01 01:01:59;;;;;;;33.65;20.20;;;8.80;99.90;;;;;;4993082;28;20739;-83
2021/12/01 01:04:25;;;;;;;48.25;23.17;;;8.80;99.90;;;;;;5009372;28;20109;-83
2021/12/01 01:06:51;;;;;;;43.55;23.60;;;8.90;99.90;;;;;;4992403;28;20034;-84
2021/12/01 01:09:17;;;;;;;36.53;21.55;;;8.90;99.90;;;;;;4992114;28;20054;-84
2021/12/01 01:17:19;;;;;;;34.97;20.67;;;8.90;99.90;;;;;;5000545;28;20088;-84
2021/12/01 01:19:45;;;;;;;44.85;24.65;;;9.00;99.90;;;;;;5007123;28;20121;-83
2021/12/01 01:22:10;;;;;;;40.50;24.02;;;9.00;99.90;;;;;;4986080;28;20117;-84
2021/12/01 01:24:37;;;;;;;45.72;23.73;;;8.90;99.90;;;;;;5008379;28;20428;-84
2021/12/01 01:27:03;;;;;;;47.28;25.58;;;8.90;99.90;;;;;;4987715;28;20045;-84
2021/12/01 01:29:33;;;;;;;50.17;24.50;;;8.90;99.90;;;;;;5008747;28;20274;-84
2021/12/01 01:31:59;;;;;;;43.83;24.85;;;8.90;99.90;;;;;;4989265;28;20042;-84
2021/12/01 01:34:26;;;;;;;40.65;22.08;;;8.90;99.90;;;;;;4986611;28;20034;-83
2021/12/01 01:36:53;;;;;;;44.92;24.02;;;8.90;99.90;;;;;;4990963;28;20542;-84
2021/12/01 01:39:19;;;;;;;47.22;23.80;;;8.90;99.90;;;;;;4992439;28;20038;-84
2021/12/01 01:41:45;;;;;;;41.25;21.90;;;8.90;99.90;;;;;;4991354;28;20044;-84
2021/12/01 01:44:11;;;;;;;37.50;20.77;;;8.90;99.90;;;;;;4991504;28;20128;-84
2021/12/01 01:46:39;;;;;;;38.75;18.38;;;8.90;99.90;;;;;;4963746;28;20034;-84
2021/12/01 01:51:37;;;;;;;38.15;18.60;;;8.90;99.90;;;;;;5009352;28;20053;-84
2021/12/01 01:54:03;;;;;;;36.92;18.83;;;8.90;99.90;;;;;;4994321;28;20034;-83
2021/12/01 01:56:29;;;;;;;34.13;16.83;;;8.90;99.90;;;;;;5012594;28;20034;-84
2021/12/01 01:58:55;;;;;;;31.13;15.50;;;9.00;99.90;;;;;;4996916;28;20021;-84
2021/12/01 02:03:48;;;;;;;32.83;17.63;;;8.90;99.90;;;;;;4994045;28;20049;-84
2021/12/01 02:06:22;;;;;;;27.77;15.82;;;9.00;99.90;;;;;;4995171;28;20558;-83
2021/12/01 02:08:48;;;;;;;33.15;16.77;;;9.00;99.90;;;;;;4995259;28;20086;-84
2021/12/01 02:11:15;;;;;;;38.72;17.65;;;9.00;99.90;;;;;;4993072;28;20041;-84
2021/12/01 02:13:41;;;;;;;32.88;16.65;;;9.00;99.90;;;;;;4991472;28;20376;-84
2021/12/01 02:16:08;;;;;;;30.48;15.48;;;9.00;99.90;;;;;;4975387;28;20095;-84
2021/12/01 02:18:33;;;;;;;28.73;14.77;;;9.00;99.90;;;;;;4974614;28;20038;-83
2021/12/01 02:21:13;;;;;;;28.98;15.93;;;9.10;99.90;;;;;;5007722;28;20119;-83
2021/12/01 02:23:49;;;;;;;28.63;15.50;;;9.00;99.90;;;;;;4990819;28;20034;-83
2021/12/01 02:26:17;;;;;;;24.38;14.25;;;9.10;99.90;;;;;;5006154;28;20125;-83
2021/12/01 02:28:45;;;;;;;31.58;14.55;;;9.10;99.90;;;;;;4990758;28;20038;-83
2021/12/01 02:31:12;;;;;;;26.23;14.40;;;9.10;99.90;;;;;;4991158;28;20049;-83
2021/12/01 02:33:39;;;;;;;22.83;11.98;;;9.10;99.90;;;;;;5005766;28;20046;-83
2021/12/01 02:36:07;;;;;;;25.20;13.13;;;9.10;99.90;;;;;;4974920;28;20119;-82
2021/12/01 02:38:33;;;;;;;25.95;13.38;;;9.10;99.90;;;;;;4989260;28;20084;-83
2021/12/01 02:40:59;;;;;;;21.10;11.02;;;9.10;99.90;;;;;;4972838;28;20077;-83
2021/12/01 02:43:25;;;;;;;23.63;12.65;;;9.10;99.90;;;;;;5006102;28;20258;-83
2021/12/01 02:45:54;;;;;;;22.45;11.73;;;9.10;99.90;;;;;;4991326;28;20030;-83
2021/12/01 02:48:22;;;;;;;21.05;11.25;;;9.10;99.90;;;;;;4974696;28;20038;-83
2021/12/01 02:50:49;;;;;;;21.38;11.43;;;9.10;99.90;;;;;;5006996;28;20181;-83
2021/12/01 02:53:19;;;;;;;18.55;10.55;;;9.10;99.90;;;;;;5007028;28;20040;-83
2021/12/01 02:56:05;;;;;;;19.50;10.65;;;9.20;99.90;;;;;;5001416;28;20559;-82
2021/12/01 02:58:33;;;;;;;12.82;8.05;;;9.10;99.90;;;;;;5005319;28;20050;-83
2021/12/01 03:01:06;;;;;;;16.35;8.68;;;9.10;99.90;;;;;;4990181;28;20596;-83
2021/12/01 03:03:33;;;;;;;15.93;8.10;;;9.20;99.90;;;;;;4988520;28;20057;-83
2021/12/01 03:05:59;;;;;;;13.27;7.95;;;9.20;99.90;;;;;;5005011;28;20518;-83
2021/12/01 03:08:25;;;;;;;14.63;7.65;;;9.30;99.90;;;;;;4989107;28;20422;-83
2021/12/01 03:10:53;;;;;;;14.40;7.38;;;9.20;99.90;;;;;;4990786;28;20050;-83
2021/12/01 03:13:20;;;;;;;14.02;6.90;;;9.20;99.90;;;;;;4989167;28;20038;-83
2021/12/01 03:15:46;;;;;;;8.70;5.75;;;9.20;99.90;;;;;;4988345;28;20049;-83
2021/12/01 03:18:14;;;;;;;9.07;5.97;;;9.20;99.90;;;;;;5006137;28;20042;-83
2021/12/01 03:20:40;;;;;;;9.27;6.13;;;9.20;99.90;;;;;;4971952;28;20073;-83
2021/12/01 03:23:06;;;;;;;7.78;4.78;;;9.20;99.90;;;;;;4974255;28;20403;-83
2021/12/01 03:25:32;;;;;;;8.18;5.28;;;9.20;99.90;;;;;;4990457;28;20168;-83
2021/12/01 03:27:58;;;;;;;7.15;4.65;;;9.30;99.90;;;;;;4974301;28;20120;-83
2021/12/01 03:30:23;;;;;;;7.55;4.80;;;9.30;99.90;;;;;;4970126;28;20069;-83
2021/12/01 03:32:50;;;;;;;6.90;4.53;;;9.30;99.90;;;;;;4990465;28;20123;-83
2021/12/01 03:35:16;;;;;;;6.65;5.13;;;9.30;99.90;;;;;;4980043;28;20539;-83
2021/12/01 03:37:45;;;;;;;10.75;5.63;;;9.30;99.90;;;;;;4990365;28;20388;-83
2021/12/01 03:40:12;;;;;;;8.30;4.65;;;9.30;99.90;;;;;;4988160;28;20043;-83
2021/12/01 03:42:39;;;;;;;10.13;5.63;;;9.30;99.90;;;;;;4988430;28;20475;-83
2021/12/01 03:45:06;;;;;;;7.97;4.82;;;9.30;99.90;;;;;;4989863;28;20757;-83
2021/12/01 03:47:31;;;;;;;7.22;4.70;;;9.20;99.90;;;;;;4989619;28;20475;-82
2021/12/01 03:49:57;;;;;;;6.43;4.15;;;9.30;99.90;;;;;;4989922;28;20046;-83
2021/12/01 03:52:24;;;;;;;7.07;4.57;;;9.30;99.90;;;;;;4983563;28;20049;-83
2021/12/01 03:54:50;;;;;;;8.02;4.20;;;9.30;99.90;;;;;;4990685;28;20073;-83
2021/12/01 03:57:18;;;;;;;8.50;4.80;;;9.30;99.90;;;;;;4977365;28;20080;-83
2021/12/01 03:59:44;;;;;;;8.82;5.43;;;9.20;99.90;;;;;;5008616;28;20046;-83
2021/12/01 04:02:10;;;;;;;8.32;5.28;;;9.20;99.90;;;;;;4994107;28;20117;-83
2021/12/01 04:04:36;;;;;;;7.72;4.97;;;9.20;99.90;;;;;;4985064;28;20466;-83
2021/12/01 04:07:02;;;;;;;8.13;5.25;;;9.20;99.90;;;;;;4992402;28;20567;-81
2021/12/01 04:09:29;;;;;;;7.80;5.38;;;9.20;99.90;;;;;;5009826;28;20129;-82
2021/12/01 04:11:55;;;;;;;7.10;5.20;;;9.20;99.90;;;;;;4975908;28;20033;-82
2021/12/01 04:14:21;;;;;;;8.27;5.40;;;9.20;99.90;;;;;;5010012;28;20034;-82
2021/12/01 04:16:47;;;;;;;7.60;5.35;;;9.60;99.90;;;;;;4993851;28;20033;-82
2021/12/01 04:19:13;;;;;;;8.77;4.60;;;9.20;99.90;;;;;;4992130;28;20123;-83
2021/12/01 04:21:39;;;;;;;7.18;5.38;;;9.10;99.90;;;;;;5008541;28;20061;-82
2021/12/01 04:24:05;;;;;;;8.05;5.13;;;9.10;99.90;;;;;;4987730;28;20089;-82
2021/12/01 04:26:34;;;;;;;6.43;4.82;;;9.10;99.90;;;;;;4993817;28;20033;-82
2021/12/01 04:29:03;;;;;;;5.82;3.90;;;9.10;99.90;;;;;;5009284;28;20419;-82
2021/12/01 04:31:31;;;;;;;7.82;4.72;;;9.10;99.90;;;;;;5007608;28;20539;-82
2021/12/01 04:33:57;;;;;;;5.00;4.07;;;9.00;99.90;;;;;;5009028;28;20508;-82
2021/12/01 04:36:36;;;;;;;5.43;3.85;;;9.00;99.90;;;;;;5009246;28;20559;-82
2021/12/01 04:39:06;;;;;;;5.88;3.78;;;9.50;99.90;;;;;;4993000;28;20463;-82
2021/12/01 04:41:38;;;;;;;6.38;4.22;;;9.00;99.90;;;;;;4992405;28;20073;-82
2021/12/01 04:44:09;;;;;;;4.70;3.40;;;9.00;99.90;;;;;;4990822;28;20034;-82
2021/12/01 04:46:41;;;;;;;3.85;2.80;;;9.00;99.90;;;;;;4992371;28;20040;-81
2021/12/01 04:49:08;;;;;;;4.82;3.15;;;9.00;99.90;;;;;;5007208;28;20041;-82
2021/12/01 04:51:34;;;;;;;4.00;3.30;;;8.90;99.90;;;;;;4993001;28;20046;-82
2021/12/01 04:54:02;;;;;;;4.85;3.13;;;8.90;99.90;;;;;;4964878;28;20414;-81
2021/12/01 04:56:28;;;;;;;4.88;3.30;;;8.90;99.90;;;;;;4976592;28;20076;-82
2021/12/01 04:58:53;;;;;;;4.28;3.08;;;8.90;99.90;;;;;;4973900;28;20069;-81
2021/12/01 05:01:19;;;;;;;5.38;3.00;;;8.80;99.90;;;;;;4976529;28;20033;-82
2021/12/01 05:03:45;;;;;;;4.18;3.03;;;8.90;99.90;;;;;;4973998;28;20042;-82
2021/12/01 05:06:13;;;;;;;4.38;2.63;;;8.80;99.90;;;;;;4992137;28;20034;-82
2021/12/01 05:08:39;;;;;;;3.25;2.95;;;8.80;99.90;;;;;;4993025;28;20096;-81
2021/12/01 05:11:05;;;;;;;4.22;3.05;;;8.80;99.90;;;;;;4990542;28;20077;-82
2021/12/01 05:13:31;;;;;;;3.03;2.42;;;8.70;99.90;;;;;;4958901;28;20080;-82
2021/12/01 05:15:56;;;;;;;3.72;2.95;;;8.70;99.90;;;;;;4976059;28;20081;-82
2021/12/01 05:18:22;;;;;;;4.43;3.40;;;8.70;99.90;;;;;;4975227;28;20049;-82
2021/12/01 05:20:48;;;;;;;3.78;2.67;;;8.60;99.90;;;;;;4991943;28;20522;-82
2021/12/01 05:23:15;;;;;;;4.05;3.05;;;8.70;99.90;;;;;;5008589;28;20029;-82
2021/12/01 05:25:42;;;;;;;4.85;3.35;;;8.60;99.90;;;;;;4976564;28;20042;-82
2021/12/01 05:28:09;;;;;;;3.55;2.70;;;8.60;99.90;;;;;;5006167;28;20046;-82
2021/12/01 05:30:35;;;;;;;5.18;3.28;;;8.50;99.90;;;;;;4991147;28;20614;-82
2021/12/01 05:33:05;;;;;;;4.18;2.97;;;8.50;99.90;;;;;;4991900;28;20519;-82
2021/12/01 05:35:32;;;;;;;3.95;3.10;;;8.50;99.90;;;;;;5008017;28;20095;-82
2021/12/01 05:37:58;;;;;;;3.08;2.53;;;8.50;99.90;;;;;;4993018;28;20046;-83
2021/12/01 05:40:24;;;;;;;2.97;2.38;;;8.50;99.90;;;;;;4975345;28;20038;-82
2021/12/01 05:42:50;;;;;;;4.18;3.10;;;8.50;99.90;;;;;;4990016;28;20403;-82
2021/12/01 05:45:16;;;;;;;3.72;3.00;;;8.40;99.90;;;;;;4976877;28;20179;-84
2021/12/01 05:47:42;;;;;;;4.13;3.03;;;8.40;99.90;;;;;;4972407;28;20034;-84
2021/12/01 05:50:08;;;;;;;4.53;2.78;;;9.00;99.90;;;;;;4992993;28;20038;-83
2021/12/01 05:52:34;;;;;;;4.10;3.20;;;8.40;99.90;;;;;;4990146;28;20487;-83
2021/12/01 05:55:00;;;;;;;4.00;3.15;;;8.40;99.90;;;;;;4989057;28;20045;-84
2021/12/01 05:57:26;;;;;;;4.30;3.25;;;8.30;99.90;;;;;;4986459;28;20541;-84
2021/12/01 05:59:51;;;;;;;4.32;3.47;;;8.40;99.90;;;;;;4959400;28;20529;-84
2021/12/01 06:02:17;;;;;;;4.00;3.28;;;8.50;99.90;;;;;;4959188;28;20438;-84
2021/12/01 06:04:43;;;;;;;4.30;3.53;;;8.40;99.90;;;;;;4990240;28;20038;-83
2021/12/01 06:07:09;;;;;;;4.88;3.28;;;8.20;99.90;;;;;;4975866;28;20042;-84
2021/12/01 06:09:35;;;;;;;3.75;3.10;;;8.20;99.90;;;;;;5013794;28;20030;-83
2021/12/01 06:12:01;;;;;;;4.78;3.70;;;8.20;99.90;;;;;;5018142;28;20045;-83
2021/12/01 06:14:27;;;;;;;4.28;3.22;;;8.20;99.90;;;;;;5018919;28;20548;-83
2021/12/01 06:16:53;;;;;;;4.82;3.08;;;8.20;99.90;;;;;;4999082;28;20037;-83
2021/12/01 06:19:20;;;;;;;4.63;3.40;;;8.20;99.90;;;;;;5015646;28;20503;-82
2021/12/01 06:21:46;;;;;;;5.88;3.38;;;8.20;99.90;;;;;;4979276;28;20073;-83
2021/12/01 06:24:12;;;;;;;5.70;3.90;;;8.10;99.90;;;;;;5010572;28;20080;-83
2021/12/01 06:26:37;;;;;;;4.85;3.63;;;8.10;99.90;;;;;;5008495;28;20037;-83
2021/12/01 06:29:04;;;;;;;7.22;3.58;;;8.10;99.90;;;;;;4991932;28;20387;-83
2021/12/01 06:31:30;;;;;;;4.40;3.60;;;8.10;99.90;;;;;;4975498;28;20175;-83
2021/12/01 06:33:58;;;;;;;4.35;3.78;;;8.10;99.90;;;;;;4995326;28;20408;-83
2021/12/01 06:36:24;;;;;;;5.50;3.88;;;8.20;99.90;;;;;;4991450;28;20124;-84
2021/12/01 06:38:50;;;;;;;4.32;3.83;;;8.10;99.90;;;;;;4979955;28;20193;-83
2021/12/01 06:41:16;;;;;;;4.78;3.67;;;8.10;99.90;;;;;;4975417;28;20529;-83
2021/12/01 06:43:42;;;;;;;4.45;3.53;;;8.10;99.90;;;;;;4991084;28;20092;-84
2021/12/01 06:46:07;;;;;;;3.92;3.40;;;8.00;99.90;;;;;;4991174;28;20499;-83
2021/12/01 06:48:33;;;;;;;4.43;3.47;;;8.00;99.90;;;;;;4974092;28;20042;-83
2021/12/01 06:50:59;;;;;;;5.75;3.95;;;8.00;99.90;;;;;;4990672;28;20515;-84
2021/12/01 06:53:26;;;;;;;5.22;4.28;;;8.00;99.90;;;;;;4990691;28;20049;-83
2021/12/01 06:55:53;;;;;;;5.15;3.90;;;8.00;99.90;;;;;;4989962;28;20157;-83
2021/12/01 06:58:18;;;;;;;5.25;3.80;;;8.00;99.90;;;;;;4982893;28;20034;-83
2021/12/01 07:00:44;;;;;;;5.63;4.15;;;8.00;99.90;;;;;;4990110;28;20561;-83
2021/12/01 07:03:10;;;;;;;5.00;4.20;;;8.00;99.90;;;;;;4974278;28;20030;-83
2021/12/01 07:05:36;;;;;;;5.30;3.75;;;8.00;99.90;;;;;;4973574;28;20060;-83
2021/12/01 07:08:03;;;;;;;4.47;3.67;;;8.20;99.90;;;;;;4987790;28;20523;-83
2021/12/01 07:10:29;;;;;;;4.15;3.40;;;8.00;99.90;;;;;;4990665;28;20073;-83
2021/12/01 07:12:55;;;;;;;3.60;3.17;;;8.00;99.90;;;;;;4973010;28;20038;-83
2021/12/01 07:15:21;;;;;;;5.07;3.47;;;8.00;99.90;;;;;;4972945;28;20064;-83
2021/12/01 07:17:47;;;;;;;5.15;4.30;;;8.00;99.90;;;;;;4974335;28;20503;-84
2021/12/01 07:20:14;;;;;;;4.75;3.25;;;7.90;99.90;;;;;;4990623;28;20452;-83
2021/12/01 07:22:42;;;;;;;5.50;3.83;;;7.90;99.90;;;;;;5006342;28;20436;-83
2021/12/01 07:25:08;;;;;;;4.32;3.67;;;7.90;99.90;;;;;;4990648;28;20192;-83
2021/12/01 07:27:33;;;;;;;5.55;3.58;;;7.90;99.90;;;;;;5004112;28;20475;-83
2021/12/01 07:30:00;;;;;;;5.40;3.50;;;7.90;99.90;;;;;;4976911;28;20129;-83
2021/12/01 07:32:25;;;;;;;3.55;3.25;;;7.90;99.90;;;;;;4971323;28;20064;-83
2021/12/01 07:34:51;;;;;;;4.47;3.95;;;7.90;99.90;;;;;;4991925;28;20076;-83
2021/12/01 07:37:18;;;;;;;3.88;3.15;;;7.90;99.90;;;;;;5009674;28;20034;-83
2021/12/01 07:39:46;;;;;;;3.38;2.95;;;7.90;99.90;;;;;;4994303;28;20042;-83
2021/12/01 07:42:13;;;;;;;4.40;3.72;;;7.90;99.90;;;;;;4977197;28;20057;-83
2021/12/01 07:44:39;;;;;;;5.03;3.42;;;7.90;99.90;;;;;;4995009;28;20042;-83
2021/12/01 07:47:06;;;;;;;3.33;2.92;;;7.90;99.90;;;;;;4991425;28;20040;-83
2021/12/01 07:49:32;;;;;;;3.63;3.10;;;7.90;99.90;;;;;;5008296;28;20049;-83
2021/12/01 07:52:03;;;;;;;3.25;2.80;;;7.90;99.90;;;;;;4995509;28;20045;-83
2021/12/01 07:54:29;;;;;;;4.10;3.42;;;7.90;99.90;;;;;;4979490;28;20030;-83
2021/12/01 07:56:55;;;;;;;3.80;3.25;;;7.90;99.90;;;;;;4977863;28;20044;-83
2021/12/01 07:59:21;;;;;;;3.63;3.10;;;7.90;99.90;;;;;;4993518;28;20034;-83
2021/12/01 08:01:47;;;;;;;3.78;3.08;;;7.90;99.90;;;;;;4987596;28;20076;-83
2021/12/01 08:04:13;;;;;;;2.85;2.50;;;7.90;99.90;;;;;;4958531;28;20411;-83
2021/12/01 08:06:40;;;;;;;3.40;2.80;;;7.90;99.90;;;;;;4999001;28;20052;-85
2021/12/01 08:09:07;;;;;;;3.05;2.58;;;7.90;99.90;;;;;;4980633;28;20191;-82
2021/12/01 08:11:33;;;;;;;2.83;2.53;;;7.90;99.90;;;;;;4966630;28;20052;-83
2021/12/01 08:13:59;;;;;;;3.13;2.42;;;8.00;99.90;;;;;;4982736;28;20491;-84
2021/12/01 08:16:25;;;;;;;2.92;2.63;;;7.90;99.90;;;;;;4983714;28;20046;-86
2021/12/01 08:18:53;;;;;;;4.07;2.88;;;7.90;99.90;;;;;;4979898;28;20630;-85
2021/12/01 08:21:20;;;;;;;3.53;2.70;;;7.90;99.90;;;;;;4980296;28;20133;-84
2021/12/01 08:23:46;;;;;;;4.18;3.05;;;8.00;99.90;;;;;;4983200;28;20049;-86
2021/12/01 08:26:12;;;;;;;4.13;3.53;;;8.00;99.90;;;;;;4982878;28;20041;-86
2021/12/01 08:28:38;;;;;;;3.83;3.20;;;8.10;99.90;;;;;;4966717;28;20476;-84
2021/12/01 08:31:03;;;;;;;4.13;3.15;;;8.00;99.90;;;;;;4983563;28;20133;-86
2021/12/01 08:33:29;;;;;;;3.97;3.15;;;8.10;99.90;;;;;;4984879;28;20132;-88
2021/12/01 08:35:55;;;;;;;4.82;3.13;;;8.10;99.90;;;;;;5000377;28;21648;-85
2021/12/01 08:38:21;;;;;;;5.55;3.58;;;8.10;99.90;;;;;;4968387;28;20045;-88
2021/12/01 08:40:47;;;;;;;4.28;3.50;;;8.10;99.90;;;;;;4967288;28;20085;-86
2021/12/01 08:43:12;;;;;;;3.28;2.72;;;8.10;99.90;;;;;;4967043;28;20045;-88
2021/12/01 08:45:38;;;;;;;3.53;2.67;;;8.20;99.90;;;;;;4951055;28;20041;-88
2021/12/01 08:48:05;;;;;;;3.92;2.85;;;8.20;99.90;;;;;;4967405;28;20042;-88
2021/12/01 08:50:32;;;;;;;4.78;3.40;;;8.20;99.90;;;;;;4965775;28;20524;-86
2021/12/01 08:52:59;;;;;;;5.00;3.22;;;8.20;99.90;;;;;;4998574;28;20116;-85
2021/12/01 08:55:24;;;;;;;5.07;3.60;;;8.20;99.90;;;;;;4997379;28;20042;-86
2021/12/01 08:57:51;;;;;;;5.15;3.78;;;8.20;99.90;;;;;;4997207;28;20944;-86
2021/12/01 09:00:19;;;;;;;4.88;3.17;;;8.20;99.90;;;;;;4982819;28;20700;-87
2021/12/01 09:02:45;;;;;;;4.85;3.85;;;8.20;99.90;;;;;;4982582;28;20852;-86
2021/12/01 09:05:11;;;;;;;6.35;3.75;;;8.20;99.90;;;;;;4964449;28;20065;-85
2021/12/01 09:07:37;;;;;;;5.47;4.10;;;8.30;99.90;;;;;;4967306;28;20188;-85
2021/12/01 09:10:04;;;;;;;6.68;4.03;;;8.20;99.90;;;;;;4998038;28;20068;-86
2021/12/01 09:12:30;;;;;;;5.95;4.05;;;8.30;99.90;;;;;;4966819;28;20080;-88
2021/12/01 09:14:57;;;;;;;4.75;3.17;;;8.30;99.90;;;;;;4981901;28;20042;-89
2021/12/01 09:17:24;;;;;;;6.18;4.47;;;8.40;99.90;;;;;;4997793;28;20128;-87
2021/12/01 09:19:51;;;;;;;6.22;4.28;;;8.40;99.90;;;;;;4966552;28;20112;-87
2021/12/01 09:22:18;;;;;;;7.55;4.50;;;8.30;99.90;;;;;;4998040;28;20037;-86
2021/12/01 09:24:45;;;;;;;5.38;4.20;;;8.40;99.90;;;;;;4981850;28;20048;-86
2021/12/01 09:27:10;;;;;;;7.57;3.17;;;8.40;99.90;;;;;;4983220;28;20395;-86
2021/12/01 09:29:37;;;;;;;5.20;2.90;;;8.40;99.90;;;;;;4982389;28;20049;-84
2021/12/01 09:32:03;;;;;;;8.30;3.13;;;8.30;99.90;;;;;;4996746;28;20759;-84
2021/12/01 09:34:29;;;;;;;3.60;2.40;;;8.30;99.90;;;;;;4982062;28;20065;-86
2021/12/01 09:36:56;;;;;;;7.05;2.60;;;8.30;99.90;;;;;;4997946;28;20061;-87
2021/12/01 09:39:24;;;;;;;6.43;2.50;;;8.20;99.90;;;;;;4982360;28;20042;-89
2021/12/01 09:41:49;;;;;;;4.25;2.25;;;8.20;99.90;;;;;;4997015;28;20038;-88
2021/12/01 09:44:15;;;;;;;7.80;2.40;;;8.20;99.90;;;;;;4965264;28;20048;-86
2021/12/01 09:46:42;;;;;;;8.70;2.30;;;8.30;99.90;;;;;;4981805;28;20038;-88
2021/12/01 09:49:07;;;;;;;6.05;2.13;;;8.30;99.90;;;;;;4981293;28;20030;-88
2021/12/01 09:51:33;;;;;;;4.72;2.20;;;8.40;99.90;;;;;;4966416;28;20104;-87
2021/12/01 09:54:00;;;;;;;5.82;2.20;;;8.30;99.90;;;;;;4981152;28;20127;-85
2021/12/01 09:56:27;;;;;;;5.82;2.10;;;8.80;99.90;;;;;;4981020;28;20503;-86
2021/12/01 09:58:53;;;;;;;11.13;2.50;;;8.50;99.90;;;;;;4982401;28;20038;-86
2021/12/01 10:01:21;;;;;;;10.52;2.75;;;8.30;99.90;;;;;;4982785;28;20053;-86
2021/12/01 10:03:47;;;;;;;4.50;1.88;;;8.20;99.90;;;;;;4997003;28;20065;-86
2021/12/01 10:06:17;;;;;;;8.35;2.33;;;8.30;99.90;;;;;;4981071;28;21644;-86
2021/12/01 10:08:49;;;;;;;6.07;2.05;;;8.20;99.90;;;;;;4982192;28;20522;-87
2021/12/01 10:11:29;;;;;;;6.97;2.03;;;8.50;99.90;;;;;;4981133;28;20045;-89
2021/12/01 10:13:59;;;;;;;9.65;2.10;;;8.20;99.90;;;;;;4981825;28;20030;-85
2021/12/01 10:16:34;;;;;;;7.85;2.05;;;8.10;99.90;;;;;;4980130;28;20908;-87
2021/12/01 10:19:04;;;;;;;9.55;2.30;;;8.10;99.90;;;;;;4997854;28;20527;-85
2021/12/01 10:21:35;;;;;;;3.55;1.35;;;8.00;99.90;;;;;;4981479;28;20056;-90
2021/12/01 10:24:07;;;;;;;8.75;1.95;;;8.10;99.90;;;;;;4997741;28;20507;-87
2021/12/01 10:26:47;;;;;;;7.75;1.73;;;8.10;99.90;;;;;;4998577;28;20034;-88
2021/12/01 10:29:16;;;;;;;3.42;1.60;;;8.20;99.90;;;;;;5003553;28;20042;-86
2021/12/01 10:31:47;;;;;;;7.13;1.80;;;8.30;99.90;;;;;;4997878;28;20046;-87
2021/12/01 10:34:27;;;;;;;8.02;2.03;;;8.30;99.90;;;;;;5000630;28;20565;-87
2021/12/01 10:37:31;;;;;;;4.55;1.48;;;8.30;99.90;;;;;;4963066;28;20746;-87
2021/12/01 10:40:12;;;;;;;8.52;2.20;;;8.20;99.90;;;;;;5009169;28;20042;-87
2021/12/01 10:42:58;;;;;;;7.07;2.35;;;8.20;99.90;;;;;;4995257;28;20052;-89
2021/12/01 10:45:36;;;;;;;5.05;1.48;;;8.20;99.90;;;;;;4996232;28;20041;-93
2021/12/01 10:48:04;;;;;;;5.75;1.42;;;8.20;99.90;;;;;;4979276;28;20087;-88
2021/12/01 10:50:34;;;;;;;8.82;1.40;;;8.20;99.90;;;;;;4960736;28;20056;-88
2021/12/01 10:53:07;;;;;;;5.97;1.67;;;8.20;99.90;;;;;;4994036;28;20042;-89
2021/12/01 10:55:34;;;;;;;5.20;1.77;;;8.20;99.90;;;;;;4977861;28;20558;-90
2021/12/01 10:58:05;;;;;;;6.10;1.70;;;8.30;99.90;;;;;;4973663;28;20046;-89
2021/12/01 11:00:38;;;;;;;8.10;2.08;;;8.90;99.90;;;;;;4986653;28;20050;-86
2021/12/01 11:03:25;;;;;;;8.55;1.85;;;8.20;99.90;;;;;;4977709;28;20049;-90
2021/12/01 11:06:10;;;;;;;8.10;1.77;;;8.20;99.90;;;;;;4977770;28;20045;-89
2021/12/01 11:08:45;;;;;;;10.75;2.05;;;8.20;99.90;;;;;;4990557;28;20566;-89
2021/12/01 11:11:14;;;;;;;6.28;2.00;;;8.60;99.90;;;;;;4992956;28;20049;-90
2021/12/01 11:13:48;;;;;;;13.27;2.40;;;8.30;99.90;;;;;;4991621;28;20056;-90
2021/12/01 11:16:17;;;;;;;12.70;2.40;;;8.40;99.90;;;;;;4994486;28;20120;-90
2021/12/01 11:18:51;;;;;;;11.73;1.98;;;8.40;99.90;;;;;;4993370;28;20514;-89
2021/12/01 11:21:22;;;;;;;14.02;2.25;;;8.30;99.90;;;;;;4975502;28;20139;-89
2021/12/01 11:23:57;;;;;;;8.10;2.65;;;8.30;99.90;;;;;;4976860;28;20049;-87
2021/12/01 11:26:26;;;;;;;12.57;1.88;;;8.30;99.90;;;;;;4988322;28;20073;-89
2021/12/01 11:28:57;;;;;;;12.75;2.80;;;8.30;99.90;;;;;;4979697;28;20057;-89
2021/12/01 11:31:38;;;;;;;9.93;2.17;;;8.30;99.90;;;;;;4976574;28;20387;-90
2021/12/01 11:34:09;;;;;;;9.65;2.13;;;8.30;99.90;;;;;;4991082;28;20056;-89
2021/12/01 11:36:53;;;;;;;12.47;2.10;;;8.60;99.90;;;;;;4983660;28;20037;-84
2021/12/01 11:39:24;;;;;;;11.85;2.20;;;8.30;99.90;;;;;;4977420;28;20657;-86
2021/12/01 11:41:52;;;;;;;9.60;2.33;;;8.30;99.90;;;;;;4962764;28;20718;-86
2021/12/01 11:44:19;;;;;;;13.35;2.83;;;8.40;99.90;;;;;;4994698;28;20614;-86
2021/12/01 11:46:49;;;;;;;12.80;3.67;;;8.40;99.90;;;;;;4976693;28;20124;-86
2021/12/01 11:49:17;;;;;;;15.85;2.67;;;8.40;99.90;;;;;;4980904;28;20519;-86
2021/12/01 11:51:50;;;;;;;14.00;2.78;;;8.40;99.90;;;;;;4982072;28;20042;-87
2021/12/01 11:54:19;;;;;;;12.45;2.88;;;8.40;99.90;;;;;;4996779;28;20041;-86
2021/12/01 11:56:59;;;;;;;9.68;2.72;;;8.40;99.90;;;;;;4981752;28;20637;-87
2021/12/01 11:59:28;;;;;;;5.72;2.45;;;8.30;99.90;;;;;;4983634;28;20120;-87
2021/12/01 12:01:58;;;;;;;7.85;2.65;;;8.30;99.90;;;;;;4976605;28;20066;-86
2021/12/01 12:04:26;;;;;;;15.73;2.72;;;8.30;99.90;;;;;;4983007;28;20256;-86
2021/12/01 12:06:58;;;;;;;19.00;3.40;;;8.30;99.90;;;;;;4983796;28;20830;-86
2021/12/01 12:09:25;;;;;;;13.20;3.08;;;8.40;99.90;;;;;;4996311;28;20054;-88
2021/12/01 12:12:00;;;;;;;18.40;3.08;;;8.40;99.90;;;;;;4996340;28;20034;-85
2021/12/01 12:14:54;;;;;;;15.18;3.67;;;8.30;99.90;;;;;;4994952;28;20097;-86
2021/12/01 12:17:30;;;;;;;15.55;3.05;;;8.30;99.90;;;;;;4994353;28;20153;-86
2021/12/01 12:20:31;;;;;;;13.60;2.72;;;8.30;99.90;;;;;;4998924;28;20053;-87
2021/12/01 12:23:01;;;;;;;9.35;2.65;;;8.20;99.90;;;;;;4997048;28;20184;-85
2021/12/01 12:25:57;;;;;;;10.23;3.00;;;8.20;99.90;;;;;;4983197;28;20034;-84
2021/12/01 12:28:30;;;;;;;12.95;2.55;;;8.10;99.90;;;;;;4998773;28;20034;-86
2021/12/01 12:31:19;;;;;;;13.10;2.28;;;8.10;99.90;;;;;;4996845;28;20111;-87
2021/12/01 12:34:03;;;;;;;14.02;2.92;;;8.10;99.90;;;;;;4977495;28;20065;-87
2021/12/01 12:36:42;;;;;;;13.60;3.08;;;8.00;99.90;;;;;;4996696;28;20053;-86
2021/12/01 12:39:15;;;;;;;10.20;2.70;;;7.90;99.90;;;;;;4998250;28;20108;-85
2021/12/01 12:42:09;;;;;;;19.10;3.10;;;7.90;99.90;;;;;;4994174;28;20073;-85
2021/12/01 12:44:47;;;;;;;12.82;3.28;;;7.90;99.90;;;;;;4977863;28;20124;-85
2021/12/01 12:47:16;;;;;;;16.30;2.92;;;7.80;99.90;;;;;;4993037;28;20061;-85
2021/12/01 12:49:48;;;;;;;17.30;3.42;;;7.70;99.90;;;;;;4981513;28;20121;-87
2021/12/01 12:52:26;;;;;;;15.95;2.75;;;7.50;99.90;;;;;;4994387;28;20034;-90
2021/12/01 12:54:56;;;;;;;12.13;2.58;;;6.90;99.90;;;;;;4994704;28;20045;-90
2021/12/01 12:57:24;;;;;;;10.85;2.40;;;7.50;99.90;;;;;;4994966;28;20042;-90
2021/12/01 13:00:09;;;;;;;14.45;2.83;;;7.50;99.90;;;;;;4977416;28;20042;-89
2021/12/01 13:02:35;;;;;;;17.90;3.45;;;7.50;99.90;;;;;;4988445;28;20127;-88
2021/12/01 13:05:05;;;;;;;10.93;2.90;;;7.50;99.90;;;;;;4972734;28;20538;-88
2021/12/01 13:07:34;;;;;;;14.45;2.97;;;7.50;99.90;;;;;;4974853;28;20055;-87